sensor_id;sensor_type;location;lat;lon;timestamp;temperature;humidity
19435;DHT22;9853;50.848;4.108;2024-01-16T00:03:01;1.70;99.90
19435;DHT22;9853;50.848;4.108;2024-01-16T00:05:10;1.60;99.90
19435;DHT22;9853;50.848;4.108;2024-01-16T00:07:39;1.70;99.90
19435;DHT22;9853;50.848;4.108;2024-01-16T00:10:12;1.50;99.90
19435;DHT22;9853;50.848;4.108;2024-01-16T00:12:21;1.40;99.90
19435;DHT22;9853;50.848;4.108;2024-01-16T00:14:25;1.50;99.90
19435;DHT22;9853;50.848;4.108;2024-01-16T00:16:31;1.40;99.90
19435;DHT22;9853;50.848;4.108;2024-01-16T00:18:48;1.40;99.90
19435;DHT22;9853;50.848;4.108;2024-01-16T00:20:54;1.40;99.90
19435;DHT22;9853;50.848;4.108;2024-01-16T00:22:55;1.30;99.90
19435;DHT22;9853;50.848;4.108;2024-01-16T00:25:01;1.20;99.90
19435;DHT22;9853;50.848;4.108;2024-01-16T00:27:07;1.10;99.90
19435;DHT22;9853;50.848;4.108;2024-01-16T00:29:12;1.00;99.90
19435;DHT22;9853;50.848;4.108;2024-01-16T00:31:21;1.00;99.90
19435;DHT22;9853;50.848;4.108;2024-01-16T00:33:29;0.90;99.90
19435;DHT22;9853;50.848;4.108;2024-01-16T00:35:33;0.90;99.90
19435;DHT22;9853;50.848;4.108;2024-01-16T00:37:47;0.90;99.90
19435;DHT22;9853;50.848;4.108;2024-01-16T00:39:47;1.10;99.90
19435;DHT22;9853;50.848;4.108;2024-01-16T00:42:08;1.00;99.90
19435;DHT22;9853;50.848;4.108;2024-01-16T00:44:16;1.10;99.90
19435;DHT22;9853;50.848;4.108;2024-01-16T00:46:20;0.90;99.90
19435;DHT22;9853;50.848;4.108;2024-01-16T00:48:30;0.90;99.90
19435;DHT22;9853;50.848;4.108;2024-01-16T00:50:41;1.00;99.90
19435;DHT22;9853;50.848;4.108;2024-01-16T00:53:02;0.90;99.90
19435;DHT22;9853;50.848;4.108;2024-01-16T00:55:06;0.90;99.90
19435;DHT22;9853;50.848;4.108;2024-01-16T00:57:12;0.90;99.90
19435;DHT22;9853;50.848;4.108;2024-01-16T00:59:46;0.90;99.90
19435;DHT22;9853;50.848;4.108;2024-01-16T01:01:57;0.70;99.90
19435;DHT22;9853;50.848;4.108;2024-01-16T01:03:58;0.70;99.90
19435;DHT22;9853;50.848;4.108;2024-01-16T01:06:00;0.60;99.90
19435;DHT22;9853;50.848;4.108;2024-01-16T01:08:04;0.70;99.90
19435;DHT22;9853;50.848;4.108;2024-01-16T01:10:12;0.60;99.90
19435;DHT22;9853;50.848;4.108;2024-01-16T01:12:15;0.60;99.90
19435;DHT22;9853;50.848;4.108;2024-01-16T01:14:16;0.60;99.90
19435;DHT22;9853;50.848;4.108;2024-01-16T01:16:19;0.60;99.90
19435;DHT22;9853;50.848;4.108;2024-01-16T01:18:20;0.60;99.90
19435;DHT22;9853;50.848;4.108;2024-01-16T01:20:31;0.50;99.90
19435;DHT22;9853;50.848;4.108;2024-01-16T01:22:34;0.50;99.90
19435;DHT22;9853;50.848;4.108;2024-01-16T01:24:38;0.40;99.90
19435;DHT22;9853;50.848;4.108;2024-01-16T01:26:55;0.40;99.90
19435;DHT22;9853;50.848;4.108;2024-01-16T01:28:59;0.50;99.90
19435;DHT22;9853;50.848;4.108;2024-01-16T01:31:02;0.60;99.90
19435;DHT22;9853;50.848;4.108;2024-01-16T01:33:06;0.70;99.90
19435;DHT22;9853;50.848;4.108;2024-01-16T01:35:10;0.80;99.90
19435;DHT22;9853;50.848;4.108;2024-01-16T01:37:20;0.80;99.90
19435;DHT22;9853;50.848;4.108;2024-01-16T01:39:21;0.80;99.90
19435;DHT22;9853;50.848;4.108;2024-01-16T01:41:27;0.70;99.90
19435;DHT22;9853;50.848;4.108;2024-01-16T01:43:36;0.70;99.90
19435;DHT22;9853;50.848;4.108;2024-01-16T01:45:37;0.90;99.90
19435;DHT22;9853;50.848;4.108;2024-01-16T01:47:41;0.90;99.90
19435;DHT22;9853;50.848;4.108;2024-01-16T01:49:45;0.90;99.90
19435;DHT22;9853;50.848;4.108;2024-01-16T01:51:46;1.00;99.90
19435;DHT22;9853;50.848;4.108;2024-01-16T01:53:49;1.10;99.90
19435;DHT22;9853;50.848;4.108;2024-01-16T01:55:53;1.10;99.90
19435;DHT22;9853;50.848;4.108;2024-01-16T01:58:00;0.90;99.90
19435;DHT22;9853;50.848;4.108;2024-01-16T02:00:06;0.90;99.90
19435;DHT22;9853;50.848;4.108;2024-01-16T02:02:13;0.90;99.90
19435;DHT22;9853;50.848;4.108;2024-01-16T02:04:17;0.90;99.90
19435;DHT22;9853;50.848;4.108;2024-01-16T02:06:19;0.90;99.90
19435;DHT22;9853;50.848;4.108;2024-01-16T02:08:23;1.00;99.90
19435;DHT22;9853;50.848;4.108;2024-01-16T02:10:24;0.90;99.90
19435;DHT22;9853;50.848;4.108;2024-01-16T02:12:25;1.00;99.90
19435;DHT22;9853;50.848;4.108;2024-01-16T02:14:29;0.90;99.90
19435;DHT22;9853;50.848;4.108;2024-01-16T02:16:38;0.90;99.90
19435;DHT22;9853;50.848;4.108;2024-01-16T02:18:44;0.80;99.90
19435;DHT22;9853;50.848;4.108;2024-01-16T02:20:47;0.80;99.90
19435;DHT22;9853;50.848;4.108;2024-01-16T02:22:50;0.90;99.90
19435;DHT22;9853;50.848;4.108;2024-01-16T02:25:00;1.00;99.90
19435;DHT22;9853;50.848;4.108;2024-01-16T02:27:04;0.90;99.90
19435;DHT22;9853;50.848;4.108;2024-01-16T02:29:05;0.80;99.90
19435;DHT22;9853;50.848;4.108;2024-01-16T02:31:07;0.80;99.90
19435;DHT22;9853;50.848;4.108;2024-01-16T02:33:08;0.80;99.90
19435;DHT22;9853;50.848;4.108;2024-01-16T02:35:17;0.90;99.90
19435;DHT22;9853;50.848;4.108;2024-01-16T02:37:21;1.00;99.90
19435;DHT22;9853;50.848;4.108;2024-01-16T02:39:25;1.00;99.90
19435;DHT22;9853;50.848;4.108;2024-01-16T02:41:26;0.90;99.90
19435;DHT22;9853;50.848;4.108;2024-01-16T02:43:27;0.80;99.90
19435;DHT22;9853;50.848;4.108;2024-01-16T02:45:28;0.80;99.90
19435;DHT22;9853;50.848;4.108;2024-01-16T02:47:29;0.60;99.90
19435;DHT22;9853;50.848;4.108;2024-01-16T02:49:30;0.70;99.90
19435;DHT22;9853;50.848;4.108;2024-01-16T02:51:33;0.80;99.90
19435;DHT22;9853;50.848;4.108;2024-01-16T02:53:34;0.80;99.90
19435;DHT22;9853;50.848;4.108;2024-01-16T02:55:38;0.60;99.90
19435;DHT22;9853;50.848;4.108;2024-01-16T02:57:38;0.50;99.90
19435;DHT22;9853;50.848;4.108;2024-01-16T02:59:39;0.40;99.90
19435;DHT22;9853;50.848;4.108;2024-01-16T03:01:43;0.50;99.90
19435;DHT22;9853;50.848;4.108;2024-01-16T03:03:44;0.60;99.90
19435;DHT22;9853;50.848;4.108;2024-01-16T03:05:45;0.50;99.90
19435;DHT22;9853;50.848;4.108;2024-01-16T03:07:51;0.50;99.90
19435;DHT22;9853;50.848;4.108;2024-01-16T03:09:57;0.40;99.90
19435;DHT22;9853;50.848;4.108;2024-01-16T03:12:00;0.60;99.90
19435;DHT22;9853;50.848;4.108;2024-01-16T03:14:01;0.60;99.90
19435;DHT22;9853;50.848;4.108;2024-01-16T03:16:07;0.50;99.90
19435;DHT22;9853;50.848;4.108;2024-01-16T03:18:07;0.70;99.90
19435;DHT22;9853;50.848;4.108;2024-01-16T03:20:09;0.70;99.90
19435;DHT22;9853;50.848;4.108;2024-01-16T03:22:12;0.60;99.90
19435;DHT22;9853;50.848;4.108;2024-01-16T03:24:13;0.70;99.90
19435;DHT22;9853;50.848;4.108;2024-01-16T03:26:15;0.80;99.90
19435;DHT22;9853;50.848;4.108;2024-01-16T03:28:16;0.80;99.90
19435;DHT22;9853;50.848;4.108;2024-01-16T03:30:17;0.70;99.90
19435;DHT22;9853;50.848;4.108;2024-01-16T03:32:17;0.60;99.90
19435;DHT22;9853;50.848;4.108;2024-01-16T03:34:19;0.60;99.90
19435;DHT22;9853;50.848;4.108;2024-01-16T03:36:28;0.70;99.90
19435;DHT22;9853;50.848;4.108;2024-01-16T03:38:29;0.80;99.90
19435;DHT22;9853;50.848;4.108;2024-01-16T03:40:30;0.90;99.90
19435;DHT22;9853;50.848;4.108;2024-01-16T03:42:34;0.80;99.90
19435;DHT22;9853;50.848;4.108;2024-01-16T03:44:43;0.70;99.90
19435;DHT22;9853;50.848;4.108;2024-01-16T03:46:44;0.70;99.90
19435;DHT22;9853;50.848;4.108;2024-01-16T03:48:45;0.80;99.90
19435;DHT22;9853;50.848;4.108;2024-01-16T03:50:46;0.80;99.90
19435;DHT22;9853;50.848;4.108;2024-01-16T03:52:48;0.70;99.90
19435;DHT22;9853;50.848;4.108;2024-01-16T03:54:48;0.80;99.90
19435;DHT22;9853;50.848;4.108;2024-01-16T03:56:49;0.80;99.90
19435;DHT22;9853;50.848;4.108;2024-01-16T03:58:51;0.80;99.90
19435;DHT22;9853;50.848;4.108;2024-01-16T04:00:52;0.60;99.90
19435;DHT22;9853;50.848;4.108;2024-01-16T04:02:54;0.40;99.90
19435;DHT22;9853;50.848;4.108;2024-01-16T04:04:57;0.20;99.90
19435;DHT22;9853;50.848;4.108;2024-01-16T04:06:58;0.20;99.90
19435;DHT22;9853;50.848;4.108;2024-01-16T04:08:59;0.10;99.90
19435;DHT22;9853;50.848;4.108;2024-01-16T04:11:00;0.10;99.90
19435;DHT22;9853;50.848;4.108;2024-01-16T04:13:01;0.30;99.90
19435;DHT22;9853;50.848;4.108;2024-01-16T04:15:03;0.10;99.90
19435;DHT22;9853;50.848;4.108;2024-01-16T04:17:04;0.10;99.90
19435;DHT22;9853;50.848;4.108;2024-01-16T04:19:05;0.20;99.90
19435;DHT22;9853;50.848;4.108;2024-01-16T04:21:06;0.10;99.90
19435;DHT22;9853;50.848;4.108;2024-01-16T04:23:10;0.20;99.90
19435;DHT22;9853;50.848;4.108;2024-01-16T04:25:12;0.20;99.90
19435;DHT22;9853;50.848;4.108;2024-01-16T04:27:13;0.10;99.90
19435;DHT22;9853;50.848;4.108;2024-01-16T04:29:14;0.10;99.90
19435;DHT22;9853;50.848;4.108;2024-01-16T04:31:15;0.10;99.90
19435;DHT22;9853;50.848;4.108;2024-01-16T04:33:18;0.20;99.90
19435;DHT22;9853;50.848;4.108;2024-01-16T04:35:19;0.30;99.90
19435;DHT22;9853;50.848;4.108;2024-01-16T04:37:19;0.40;99.90
19435;DHT22;9853;50.848;4.108;2024-01-16T04:39:20;0.40;99.90
19435;DHT22;9853;50.848;4.108;2024-01-16T04:41:23;0.30;99.90
19435;DHT22;9853;50.848;4.108;2024-01-16T04:43:24;0.30;99.90
19435;DHT22;9853;50.848;4.108;2024-01-16T04:45:25;0.30;99.90
19435;DHT22;9853;50.848;4.108;2024-01-16T04:47:25;0.30;99.90
19435;DHT22;9853;50.848;4.108;2024-01-16T04:49:26;0.20;99.90
19435;DHT22;9853;50.848;4.108;2024-01-16T04:51:27;0.20;99.90
19435;DHT22;9853;50.848;4.108;2024-01-16T04:53:31;0.10;99.90
19435;DHT22;9853;50.848;4.108;2024-01-16T04:55:32;0.10;99.90
19435;DHT22;9853;50.848;4.108;2024-01-16T04:57:34;0.00;99.90
19435;DHT22;9853;50.848;4.108;2024-01-16T04:59:34;0.00;99.90
19435;DHT22;9853;50.848;4.108;2024-01-16T05:01:37;-0.10;99.90
19435;DHT22;9853;50.848;4.108;2024-01-16T05:03:38;-0.10;99.90
19435;DHT22;9853;50.848;4.108;2024-01-16T05:05:39;0.00;99.90
19435;DHT22;9853;50.848;4.108;2024-01-16T05:07:43;0.00;99.90
19435;DHT22;9853;50.848;4.108;2024-01-16T05:09:47;0.00;99.90
19435;DHT22;9853;50.848;4.108;2024-01-16T05:11:51;-0.10;99.90
19435;DHT22;9853;50.848;4.108;2024-01-16T05:13:52;0.00;99.90
19435;DHT22;9853;50.848;4.108;2024-01-16T05:15:58;0.10;99.90
19435;DHT22;9853;50.848;4.108;2024-01-16T05:17:59;0.00;99.90
19435;DHT22;9853;50.848;4.108;2024-01-16T05:20:02;0.00;99.90
19435;DHT22;9853;50.848;4.108;2024-01-16T05:22:06;-0.10;99.90
19435;DHT22;9853;50.848;4.108;2024-01-16T05:24:08;-0.10;99.90
19435;DHT22;9853;50.848;4.108;2024-01-16T05:26:09;-0.10;99.90
19435;DHT22;9853;50.848;4.108;2024-01-16T05:28:10;-0.30;99.90
19435;DHT22;9853;50.848;4.108;2024-01-16T05:30:11;-0.20;99.90
19435;DHT22;9853;50.848;4.108;2024-01-16T05:32:13;-0.20;99.90
19435;DHT22;9853;50.848;4.108;2024-01-16T05:34:14;-0.30;99.90
19435;DHT22;9853;50.848;4.108;2024-01-16T05:36:16;-0.20;99.90
19435;DHT22;9853;50.848;4.108;2024-01-16T05:38:17;-0.20;99.90
19435;DHT22;9853;50.848;4.108;2024-01-16T05:40:18;-0.30;99.90
19435;DHT22;9853;50.848;4.108;2024-01-16T05:42:19;-0.20;99.90
19435;DHT22;9853;50.848;4.108;2024-01-16T05:44:20;-0.20;99.90
19435;DHT22;9853;50.848;4.108;2024-01-16T05:46:20;-0.20;99.90
19435;DHT22;9853;50.848;4.108;2024-01-16T05:48:21;-0.30;99.90
19435;DHT22;9853;50.848;4.108;2024-01-16T05:50:22;-0.30;99.90
19435;DHT22;9853;50.848;4.108;2024-01-16T05:52:26;-0.30;99.90
19435;DHT22;9853;50.848;4.108;2024-01-16T05:54:29;-0.30;99.90
19435;DHT22;9853;50.848;4.108;2024-01-16T05:56:31;-0.40;99.90
19435;DHT22;9853;50.848;4.108;2024-01-16T05:58:32;-0.40;99.90
19435;DHT22;9853;50.848;4.108;2024-01-16T06:00:39;-0.30;99.90
19435;DHT22;9853;50.848;4.108;2024-01-16T06:02:40;-0.40;99.90
19435;DHT22;9853;50.848;4.108;2024-01-16T06:04:41;-0.40;99.90
19435;DHT22;9853;50.848;4.108;2024-01-16T06:06:42;-0.40;99.90
19435;DHT22;9853;50.848;4.108;2024-01-16T06:08:45;-0.30;99.90
19435;DHT22;9853;50.848;4.108;2024-01-16T06:10:55;-0.30;99.90
19435;DHT22;9853;50.848;4.108;2024-01-16T06:12:56;-0.20;99.90
19435;DHT22;9853;50.848;4.108;2024-01-16T06:14:59;-0.10;99.90
19435;DHT22;9853;50.848;4.108;2024-01-16T06:17:08;-0.20;99.90
19435;DHT22;9853;50.848;4.108;2024-01-16T06:19:11;-0.10;99.90
19435;DHT22;9853;50.848;4.108;2024-01-16T06:21:19;0.00;99.90
19435;DHT22;9853;50.848;4.108;2024-01-16T06:23:24;0.00;99.90
19435;DHT22;9853;50.848;4.108;2024-01-16T06:25:25;0.10;99.90
19435;DHT22;9853;50.848;4.108;2024-01-16T06:27:28;0.20;99.90
19435;DHT22;9853;50.848;4.108;2024-01-16T06:29:32;0.10;99.90
19435;DHT22;9853;50.848;4.108;2024-01-16T06:31:38;0.00;99.90
19435;DHT22;9853;50.848;4.108;2024-01-16T06:33:40;0.10;99.90
19435;DHT22;9853;50.848;4.108;2024-01-16T06:35:41;-0.10;99.90
19435;DHT22;9853;50.848;4.108;2024-01-16T06:37:48;0.00;99.90
19435;DHT22;9853;50.848;4.108;2024-01-16T06:39:52;0.10;99.90
19435;DHT22;9853;50.848;4.108;2024-01-16T06:41:58;0.00;99.90
19435;DHT22;9853;50.848;4.108;2024-01-16T06:44:04;0.00;99.90
19435;DHT22;9853;50.848;4.108;2024-01-16T06:46:10;0.00;99.90
19435;DHT22;9853;50.848;4.108;2024-01-16T06:48:14;-0.10;99.90
19435;DHT22;9853;50.848;4.108;2024-01-16T06:50:17;-0.10;99.90
19435;DHT22;9853;50.848;4.108;2024-01-16T06:52:18;-0.10;99.90
19435;DHT22;9853;50.848;4.108;2024-01-16T06:54:20;-0.10;99.90
19435;DHT22;9853;50.848;4.108;2024-01-16T06:56:22;-0.20;99.90
19435;DHT22;9853;50.848;4.108;2024-01-16T06:58:25;-0.20;99.90
19435;DHT22;9853;50.848;4.108;2024-01-16T07:00:25;-0.30;99.90
19435;DHT22;9853;50.848;4.108;2024-01-16T07:02:27;-0.30;99.90
19435;DHT22;9853;50.848;4.108;2024-01-16T07:04:31;-0.30;99.90
19435;DHT22;9853;50.848;4.108;2024-01-16T07:06:37;-0.30;99.90
19435;DHT22;9853;50.848;4.108;2024-01-16T07:08:38;-0.20;99.90
19435;DHT22;9853;50.848;4.108;2024-01-16T07:10:44;-0.30;99.90
19435;DHT22;9853;50.848;4.108;2024-01-16T07:12:45;-0.30;99.90
19435;DHT22;9853;50.848;4.108;2024-01-16T07:14:46;-0.40;99.90
19435;DHT22;9853;50.848;4.108;2024-01-16T07:16:47;-0.50;99.90
19435;DHT22;9853;50.848;4.108;2024-01-16T07:18:48;-0.50;99.90
19435;DHT22;9853;50.848;4.108;2024-01-16T07:20:49;-0.40;99.90
19435;DHT22;9853;50.848;4.108;2024-01-16T07:22:51;-0.40;99.90
19435;DHT22;9853;50.848;4.108;2024-01-16T07:24:52;-0.50;99.90
19435;DHT22;9853;50.848;4.108;2024-01-16T07:26:53;-0.60;99.90
19435;DHT22;9853;50.848;4.108;2024-01-16T07:28:55;-0.60;99.90
19435;DHT22;9853;50.848;4.108;2024-01-16T07:30:55;-0.60;99.90
19435;DHT22;9853;50.848;4.108;2024-01-16T07:32:56;-0.60;99.90
19435;DHT22;9853;50.848;4.108;2024-01-16T07:34:57;-0.50;99.90
19435;DHT22;9853;50.848;4.108;2024-01-16T07:36:58;-0.50;99.90
19435;DHT22;9853;50.848;4.108;2024-01-16T07:38:59;-0.40;99.90
19435;DHT22;9853;50.848;4.108;2024-01-16T07:41:01;-0.40;99.90
19435;DHT22;9853;50.848;4.108;2024-01-16T07:43:02;-0.30;99.90
19435;DHT22;9853;50.848;4.108;2024-01-16T07:45:06;-0.40;99.90
19435;DHT22;9853;50.848;4.108;2024-01-16T07:47:07;-0.50;99.90
19435;DHT22;9853;50.848;4.108;2024-01-16T07:49:14;-0.50;99.90
19435;DHT22;9853;50.848;4.108;2024-01-16T07:51:17;-0.60;99.90
19435;DHT22;9853;50.848;4.108;2024-01-16T07:53:18;-0.70;99.90
19435;DHT22;9853;50.848;4.108;2024-01-16T07:55:20;-0.50;99.90
19435;DHT22;9853;50.848;4.108;2024-01-16T07:57:21;-0.50;99.90
19435;DHT22;9853;50.848;4.108;2024-01-16T07:59:22;-0.60;99.90
19435;DHT22;9853;50.848;4.108;2024-01-16T08:01:23;-0.60;99.90
19435;DHT22;9853;50.848;4.108;2024-01-16T08:03:24;-0.60;99.90
19435;DHT22;9853;50.848;4.108;2024-01-16T08:05:26;-0.60;99.90
19435;DHT22;9853;50.848;4.108;2024-01-16T08:07:28;-0.60;99.90
19435;DHT22;9853;50.848;4.108;2024-01-16T08:09:29;-0.50;99.90
19435;DHT22;9853;50.848;4.108;2024-01-16T08:11:30;-0.50;99.90
19435;DHT22;9853;50.848;4.108;2024-01-16T08:13:33;-0.60;99.90
19435;DHT22;9853;50.848;4.108;2024-01-16T08:15:36;-0.60;99.90
19435;DHT22;9853;50.848;4.108;2024-01-16T08:17:37;-0.60;99.90
19435;DHT22;9853;50.848;4.108;2024-01-16T08:19:40;-0.50;99.90
19435;DHT22;9853;50.848;4.108;2024-01-16T08:21:42;-0.30;99.90
19435;DHT22;9853;50.848;4.108;2024-01-16T08:23:43;-0.30;99.90
19435;DHT22;9853;50.848;4.108;2024-01-16T08:25:44;-0.20;99.90
19435;DHT22;9853;50.848;4.108;2024-01-16T08:27:46;-0.20;99.90
19435;DHT22;9853;50.848;4.108;2024-01-16T08:29:47;-0.10;99.90
19435;DHT22;9853;50.848;4.108;2024-01-16T08:31:50;-0.10;99.90
19435;DHT22;9853;50.848;4.108;2024-01-16T08:33:59;-0.20;99.90
19435;DHT22;9853;50.848;4.108;2024-01-16T08:36:04;-0.10;99.90
19435;DHT22;9853;50.848;4.108;2024-01-16T08:38:10;-0.10;99.90
19435;DHT22;9853;50.848;4.108;2024-01-16T08:40:14;-0.20;99.90
19435;DHT22;9853;50.848;4.108;2024-01-16T08:42:26;-0.20;99.90
19435;DHT22;9853;50.848;4.108;2024-01-16T08:44:27;-0.10;99.90
19435;DHT22;9853;50.848;4.108;2024-01-16T08:46:30;-0.10;99.90
19435;DHT22;9853;50.848;4.108;2024-01-16T08:48:36;0.00;99.90
19435;DHT22;9853;50.848;4.108;2024-01-16T08:50:41;0.10;99.90
19435;DHT22;9853;50.848;4.108;2024-01-16T08:52:44;0.10;99.90
19435;DHT22;9853;50.848;4.108;2024-01-16T08:54:51;0.30;99.90
19435;DHT22;9853;50.848;4.108;2024-01-16T08:57:01;0.30;99.90
19435;DHT22;9853;50.848;4.108;2024-01-16T08:59:03;0.20;99.90
19435;DHT22;9853;50.848;4.108;2024-01-16T09:01:13;0.20;99.90
19435;DHT22;9853;50.848;4.108;2024-01-16T09:03:17;0.20;99.90
19435;DHT22;9853;50.848;4.108;2024-01-16T09:05:18;0.50;99.90
19435;DHT22;9853;50.848;4.108;2024-01-16T09:07:28;0.40;99.90
19435;DHT22;9853;50.848;4.108;2024-01-16T09:09:32;0.50;99.90
19435;DHT22;9853;50.848;4.108;2024-01-16T09:11:35;0.40;99.90
19435;DHT22;9853;50.848;4.108;2024-01-16T09:13:37;0.40;99.90
19435;DHT22;9853;50.848;4.108;2024-01-16T09:15:49;0.50;99.90
19435;DHT22;9853;50.848;4.108;2024-01-16T09:17:50;0.60;99.90
19435;DHT22;9853;50.848;4.108;2024-01-16T09:19:54;0.70;99.90
19435;DHT22;9853;50.848;4.108;2024-01-16T09:21:57;0.60;99.90
19435;DHT22;9853;50.848;4.108;2024-01-16T09:24:01;0.50;99.90
19435;DHT22;9853;50.848;4.108;2024-01-16T09:26:02;0.40;99.90
19435;DHT22;9853;50.848;4.108;2024-01-16T09:28:06;0.50;99.90
19435;DHT22;9853;50.848;4.108;2024-01-16T09:30:10;0.50;99.90
19435;DHT22;9853;50.848;4.108;2024-01-16T09:32:19;0.60;99.90
19435;DHT22;9853;50.848;4.108;2024-01-16T09:34:21;0.70;99.90
19435;DHT22;9853;50.848;4.108;2024-01-16T09:36:27;0.80;99.90
19435;DHT22;9853;50.848;4.108;2024-01-16T09:38:37;0.70;99.90
19435;DHT22;9853;50.848;4.108;2024-01-16T09:40:52;0.70;99.90
19435;DHT22;9853;50.848;4.108;2024-01-16T09:43:06;0.70;99.90
19435;DHT22;9853;50.848;4.108;2024-01-16T09:45:09;0.60;99.90
19435;DHT22;9853;50.848;4.108;2024-01-16T09:47:11;0.60;99.90
19435;DHT22;9853;50.848;4.108;2024-01-16T09:49:14;0.60;99.90
19435;DHT22;9853;50.848;4.108;2024-01-16T09:51:28;0.80;99.90
19435;DHT22;9853;50.848;4.108;2024-01-16T09:53:41;0.90;99.90
19435;DHT22;9853;50.848;4.108;2024-01-16T09:56:07;1.00;99.90
19435;DHT22;9853;50.848;4.108;2024-01-16T10:01:55;1.20;99.90
19435;DHT22;9853;50.848;4.108;2024-01-16T10:04:11;1.20;99.90
19435;DHT22;9853;50.848;4.108;2024-01-16T10:06:45;1.40;99.90
19435;DHT22;9853;50.848;4.108;2024-01-16T10:15:37;1.60;99.90
19435;DHT22;9853;50.848;4.108;2024-01-16T10:17:42;1.60;99.90
19435;DHT22;9853;50.848;4.108;2024-01-16T10:19:50;1.70;99.90
19435;DHT22;9853;50.848;4.108;2024-01-16T10:21:51;1.70;99.90
19435;DHT22;9853;50.848;4.108;2024-01-16T10:23:52;1.70;99.90
19435;DHT22;9853;50.848;4.108;2024-01-16T10:26:11;1.50;99.90
19435;DHT22;9853;50.848;4.108;2024-01-16T10:28:19;1.50;99.90
19435;DHT22;9853;50.848;4.108;2024-01-16T10:30:21;1.40;99.90
19435;DHT22;9853;50.848;4.108;2024-01-16T10:32:31;1.50;99.90
19435;DHT22;9853;50.848;4.108;2024-01-16T10:34:33;1.60;99.90
19435;DHT22;9853;50.848;4.108;2024-01-16T10:36:34;1.60;99.90
19435;DHT22;9853;50.848;4.108;2024-01-16T10:38:37;1.70;99.90
19435;DHT22;9853;50.848;4.108;2024-01-16T10:40:39;1.90;99.90
19435;DHT22;9853;50.848;4.108;2024-01-16T10:42:40;1.70;99.90
19435;DHT22;9853;50.848;4.108;2024-01-16T10:44:54;1.80;99.90
19435;DHT22;9853;50.848;4.108;2024-01-16T10:47:10;1.90;99.90
19435;DHT22;9853;50.848;4.108;2024-01-16T10:49:19;2.00;99.90
19435;DHT22;9853;50.848;4.108;2024-01-16T10:51:20;2.00;99.90
19435;DHT22;9853;50.848;4.108;2024-01-16T10:53:22;1.90;99.90
19435;DHT22;9853;50.848;4.108;2024-01-16T10:55:28;2.00;99.90
19435;DHT22;9853;50.848;4.108;2024-01-16T10:57:34;2.10;99.90
19435;DHT22;9853;50.848;4.108;2024-01-16T10:59:53;2.10;99.90
19435;DHT22;9853;50.848;4.108;2024-01-16T11:02:15;2.10;99.90
19435;DHT22;9853;50.848;4.108;2024-01-16T11:04:19;2.20;99.90
19435;DHT22;9853;50.848;4.108;2024-01-16T11:06:31;2.30;99.90
19435;DHT22;9853;50.848;4.108;2024-01-16T11:08:33;2.30;99.90
19435;DHT22;9853;50.848;4.108;2024-01-16T11:10:35;2.50;99.90
19435;DHT22;9853;50.848;4.108;2024-01-16T11:12:42;2.70;99.90
19435;DHT22;9853;50.848;4.108;2024-01-16T11:14:45;2.90;99.90
19435;DHT22;9853;50.848;4.108;2024-01-16T11:16:50;2.90;99.90
19435;DHT22;9853;50.848;4.108;2024-01-16T11:18:52;2.80;99.90
19435;DHT22;9853;50.848;4.108;2024-01-16T11:20:55;2.70;99.90
19435;DHT22;9853;50.848;4.108;2024-01-16T11:22:57;2.60;99.90
19435;DHT22;9853;50.848;4.108;2024-01-16T11:25:13;2.70;99.90
19435;DHT22;9853;50.848;4.108;2024-01-16T11:27:22;2.80;99.90
19435;DHT22;9853;50.848;4.108;2024-01-16T11:31:32;2.90;99.90
19435;DHT22;9853;50.848;4.108;2024-01-16T11:35:36;3.00;99.90
19435;DHT22;9853;50.848;4.108;2024-01-16T11:37:43;2.80;99.90
19435;DHT22;9853;50.848;4.108;2024-01-16T11:39:45;2.80;99.90
19435;DHT22;9853;50.848;4.108;2024-01-16T11:41:53;2.80;99.90
19435;DHT22;9853;50.848;4.108;2024-01-16T11:43:54;2.80;99.90
19435;DHT22;9853;50.848;4.108;2024-01-16T11:45:56;3.00;99.90
19435;DHT22;9853;50.848;4.108;2024-01-16T11:48:14;3.10;99.90
19435;DHT22;9853;50.848;4.108;2024-01-16T11:50:28;3.20;99.90
19435;DHT22;9853;50.848;4.108;2024-01-16T11:52:44;3.30;99.90
19435;DHT22;9853;50.848;4.108;2024-01-16T11:54:45;3.40;99.90
19435;DHT22;9853;50.848;4.108;2024-01-16T11:57:22;3.40;99.90
19435;DHT22;9853;50.848;4.108;2024-01-16T11:59:59;3.60;99.90
19435;DHT22;9853;50.848;4.108;2024-01-16T12:02:02;3.50;99.90
19435;DHT22;9853;50.848;4.108;2024-01-16T12:04:06;3.50;99.90
19435;DHT22;9853;50.848;4.108;2024-01-16T12:06:08;3.50;99.90
19435;DHT22;9853;50.848;4.108;2024-01-16T12:08:09;3.40;99.90
19435;DHT22;9853;50.848;4.108;2024-01-16T12:10:10;3.30;99.90
19435;DHT22;9853;50.848;4.108;2024-01-16T12:12:15;3.30;99.90
19435;DHT22;9853;50.848;4.108;2024-01-16T12:14:16;3.40;99.90
19435;DHT22;9853;50.848;4.108;2024-01-16T12:16:19;3.50;99.90
19435;DHT22;9853;50.848;4.108;2024-01-16T12:18:20;3.60;99.90
19435;DHT22;9853;50.848;4.108;2024-01-16T12:20:22;3.80;99.90
19435;DHT22;9853;50.848;4.108;2024-01-16T12:22:23;3.90;99.90
19435;DHT22;9853;50.848;4.108;2024-01-16T12:24:24;4.10;99.90
19435;DHT22;9853;50.848;4.108;2024-01-16T12:26:25;4.00;99.90
19435;DHT22;9853;50.848;4.108;2024-01-16T12:28:26;4.10;99.90
19435;DHT22;9853;50.848;4.108;2024-01-16T12:30:32;4.10;99.90
19435;DHT22;9853;50.848;4.108;2024-01-16T12:32:33;4.00;99.90
19435;DHT22;9853;50.848;4.108;2024-01-16T12:34:35;4.00;99.90
19435;DHT22;9853;50.848;4.108;2024-01-16T12:36:47;4.00;99.90
19435;DHT22;9853;50.848;4.108;2024-01-16T12:39:13;4.10;99.90
19435;DHT22;9853;50.848;4.108;2024-01-16T12:41:14;4.10;99.90
19435;DHT22;9853;50.848;4.108;2024-01-16T12:43:38;4.10;99.90
19435;DHT22;9853;50.848;4.108;2024-01-16T12:45:40;4.10;99.90
19435;DHT22;9853;50.848;4.108;2024-01-16T12:47:46;4.10;99.90
19435;DHT22;9853;50.848;4.108;2024-01-16T12:54:18;4.30;99.90
19435;DHT22;9853;50.848;4.108;2024-01-16T12:56:57;4.80;99.90
19435;DHT22;9853;50.848;4.108;2024-01-16T12:59:12;4.60;99.90
19435;DHT22;9853;50.848;4.108;2024-01-16T13:01:30;4.40;99.90
19435;DHT22;9853;50.848;4.108;2024-01-16T13:03:32;4.40;99.90
19435;DHT22;9853;50.848;4.108;2024-01-16T13:08:39;4.30;99.90
19435;DHT22;9853;50.848;4.108;2024-01-16T13:10:39;4.20;99.90
19435;DHT22;9853;50.848;4.108;2024-01-16T13:15:29;4.20;99.90
19435;DHT22;9853;50.848;4.108;2024-01-16T13:17:35;4.20;99.90
19435;DHT22;9853;50.848;4.108;2024-01-16T13:19:40;4.30;99.90
19435;DHT22;9853;50.848;4.108;2024-01-16T13:21:51;4.30;99.90
19435;DHT22;9853;50.848;4.108;2024-01-16T13:23:52;4.40;99.90
19435;DHT22;9853;50.848;4.108;2024-01-16T13:26:02;4.30;99.90
19435;DHT22;9853;50.848;4.108;2024-01-16T13:28:05;4.40;99.90
19435;DHT22;9853;50.848;4.108;2024-01-16T13:30:17;4.50;99.90
19435;DHT22;9853;50.848;4.108;2024-01-16T13:32:18;4.60;99.90
19435;DHT22;9853;50.848;4.108;2024-01-16T13:34:19;4.50;99.90
19435;DHT22;9853;50.848;4.108;2024-01-16T13:39:56;4.90;99.90
19435;DHT22;9853;50.848;4.108;2024-01-16T13:42:03;4.50;99.90
19435;DHT22;9853;50.848;4.108;2024-01-16T13:44:07;4.60;99.90
19435;DHT22;9853;50.848;4.108;2024-01-16T13:46:08;4.60;99.90
19435;DHT22;9853;50.848;4.108;2024-01-16T13:48:16;4.60;99.90
19435;DHT22;9853;50.848;4.108;2024-01-16T13:50:18;4.60;99.90
19435;DHT22;9853;50.848;4.108;2024-01-16T13:52:22;4.60;99.90
19435;DHT22;9853;50.848;4.108;2024-01-16T13:54:24;4.60;99.90
19435;DHT22;9853;50.848;4.108;2024-01-16T13:56:27;4.60;99.90
19435;DHT22;9853;50.848;4.108;2024-01-16T13:58:28;4.80;99.90
19435;DHT22;9853;50.848;4.108;2024-01-16T14:01:09;4.90;99.90